sensor_id;sensor_type;location;lat;lon;timestamp;pressure;altitude;pressure_sealevel;temperature;humidity
42847;BME280;28495;49.916;14.536;2023-03-22T00:01:21;96671.59;;;11.08;62.75
42847;BME280;28495;49.916;14.536;2023-03-22T00:06:42;96671.31;;;11.11;62.90
42847;BME280;28495;49.916;14.536;2023-03-22T00:12:03;96661.69;;;11.11;62.76
42847;BME280;28495;49.916;14.536;2023-03-22T00:17:24;96665.06;;;11.22;63.22
42847;BME280;28495;49.916;14.536;2023-03-22T00:22:46;96659.59;;;11.15;62.96
42847;BME280;28495;49.916;14.536;2023-03-22T00:28:07;96665.72;;;11.06;63.32
42847;BME280;28495;49.916;14.536;2023-03-22T00:33:29;96647.66;;;10.94;63.46
42847;BME280;28495;49.916;14.536;2023-03-22T00:38:50;96638.03;;;10.95;63.75
42847;BME280;28495;49.916;14.536;2023-03-22T00:44:11;96626.03;;;11.02;63.67
42847;BME280;28495;49.916;14.536;2023-03-22T00:49:32;96631.41;;;11.01;63.80
42847;BME280;28495;49.916;14.536;2023-03-22T00:54:55;96626.78;;;10.94;63.71
42847;BME280;28495;49.916;14.536;2023-03-22T01:00:16;96610.66;;;10.81;63.90
42847;BME280;28495;49.916;14.536;2023-03-22T01:05:38;96616.53;;;10.83;64.19
42847;BME280;28495;49.916;14.536;2023-03-22T01:10:59;96618.72;;;10.88;64.15
42847;BME280;28495;49.916;14.536;2023-03-22T01:16:21;96613.13;;;11.01;64.53
42847;BME280;28495;49.916;14.536;2023-03-22T01:21:42;96616.84;;;10.98;64.21
42847;BME280;28495;49.916;14.536;2023-03-22T01:27:03;96616.75;;;10.90;64.04
42847;BME280;28495;49.916;14.536;2023-03-22T01:32:23;96611.13;;;10.94;64.28
42847;BME280;28495;49.916;14.536;2023-03-22T01:37:44;96613.72;;;10.94;64.23
42847;BME280;28495;49.916;14.536;2023-03-22T01:43:14;96612.75;;;10.95;64.40
42847;BME280;28495;49.916;14.536;2023-03-22T01:48:46;96612.16;;;11.02;64.75
42847;BME280;28495;49.916;14.536;2023-03-22T01:54:13;96610.97;;;10.96;64.50
42847;BME280;28495;49.916;14.536;2023-03-22T01:59:37;96611.31;;;10.83;64.25
42847;BME280;28495;49.916;14.536;2023-03-22T02:05:11;96594.56;;;10.86;64.62
42847;BME280;28495;49.916;14.536;2023-03-22T02:10:33;96596.88;;;10.89;64.42
42847;BME280;28495;49.916;14.536;2023-03-22T02:16:02;96600.50;;;10.78;64.48
42847;BME280;28495;49.916;14.536;2023-03-22T02:22:13;96588.13;;;10.80;64.66
42847;BME280;28495;49.916;14.536;2023-03-22T02:50:52;96587.16;;;10.53;64.33
42847;BME280;28495;49.916;14.536;2023-03-22T02:56:29;96591.41;;;10.54;64.82
42847;BME280;28495;49.916;14.536;2023-03-22T03:01:58;96592.09;;;10.56;64.85
42847;BME280;28495;49.916;14.536;2023-03-22T03:07:22;96587.56;;;10.58;65.21
42847;BME280;28495;49.916;14.536;2023-03-22T03:12:44;96593.88;;;10.56;64.56
42847;BME280;28495;49.916;14.536;2023-03-22T03:18:18;96589.81;;;10.43;64.51
42847;BME280;28495;49.916;14.536;2023-03-22T03:29:40;96586.97;;;10.27;64.33
42847;BME280;28495;49.916;14.536;2023-03-22T03:35:11;96599.16;;;10.26;64.91
42847;BME280;28495;49.916;14.536;2023-03-22T03:40:46;96603.00;;;10.22;64.80
42847;BME280;28495;49.916;14.536;2023-03-22T03:46:08;96603.56;;;10.26;64.53
42847;BME280;28495;49.916;14.536;2023-03-22T03:51:31;96613.31;;;10.24;64.39
42847;BME280;28495;49.916;14.536;2023-03-22T03:56:53;96601.00;;;10.06;64.56
42847;BME280;28495;49.916;14.536;2023-03-22T04:02:14;96604.59;;;9.95;64.58
42847;BME280;28495;49.916;14.536;2023-03-22T04:07:36;96606.00;;;9.80;64.48
42847;BME280;28495;49.916;14.536;2023-03-22T04:12:57;96602.69;;;9.87;64.86
42847;BME280;28495;49.916;14.536;2023-03-22T04:18:18;96616.03;;;9.74;64.55
42847;BME280;28495;49.916;14.536;2023-03-22T04:23:41;96616.28;;;9.71;64.56
42847;BME280;28495;49.916;14.536;2023-03-22T04:29:02;96612.19;;;9.59;64.31
42847;BME280;28495;49.916;14.536;2023-03-22T04:34:24;96614.38;;;9.54;64.43
42847;BME280;28495;49.916;14.536;2023-03-22T04:39:49;96623.31;;;9.51;63.87
42847;BME280;28495;49.916;14.536;2023-03-22T04:45:45;96610.56;;;9.48;64.97
42847;BME280;28495;49.916;14.536;2023-03-22T04:51:12;96612.31;;;9.67;65.18
42847;BME280;28495;49.916;14.536;2023-03-22T04:56:42;96606.84;;;9.60;64.87
42847;BME280;28495;49.916;14.536;2023-03-22T05:02:04;96600.81;;;9.50;64.44
42847;BME280;28495;49.916;14.536;2023-03-22T05:07:33;96604.53;;;9.28;64.55
42847;BME280;28495;49.916;14.536;2023-03-22T05:12:55;96596.97;;;9.15;64.49
42847;BME280;28495;49.916;14.536;2023-03-22T05:18:22;96607.38;;;9.15;64.73
42847;BME280;28495;49.916;14.536;2023-03-22T05:23:49;96607.38;;;9.15;64.32
42847;BME280;28495;49.916;14.536;2023-03-22T05:29:12;96606.97;;;9.20;64.45
42847;BME280;28495;49.916;14.536;2023-03-22T05:34:52;96605.06;;;9.32;64.53
42847;BME280;28495;49.916;14.536;2023-03-22T05:40:26;96612.03;;;9.51;64.79
42847;BME280;28495;49.916;14.536;2023-03-22T05:45:48;96603.97;;;9.64;64.79
42847;BME280;28495;49.916;14.536;2023-03-22T05:51:33;96615.19;;;9.74;64.99
42847;BME280;28495;49.916;14.536;2023-03-22T05:57:03;96609.28;;;9.72;64.76
42847;BME280;28495;49.916;14.536;2023-03-22T06:02:24;96613.28;;;9.76;64.81
42847;BME280;28495;49.916;14.536;2023-03-22T06:07:45;96612.03;;;9.80;65.18
42847;BME280;28495;49.916;14.536;2023-03-22T06:13:09;96616.81;;;9.95;65.41
42847;BME280;28495;49.916;14.536;2023-03-22T06:18:30;96615.69;;;10.07;65.14
42847;BME280;28495;49.916;14.536;2023-03-22T06:24:00;96620.88;;;10.17;65.32
42847;BME280;28495;49.916;14.536;2023-03-22T06:29:20;96614.91;;;10.44;65.15
42847;BME280;28495;49.916;14.536;2023-03-22T06:34:43;96614.75;;;10.56;65.14
42847;BME280;28495;49.916;14.536;2023-03-22T06:40:06;96614.78;;;10.46;64.43
42847;BME280;28495;49.916;14.536;2023-03-22T06:45:27;96614.75;;;10.56;65.01
42847;BME280;28495;49.916;14.536;2023-03-22T06:50:54;96610.34;;;10.56;64.91
42847;BME280;28495;49.916;14.536;2023-03-22T06:56:33;96622.28;;;10.59;64.72
42847;BME280;28495;49.916;14.536;2023-03-22T07:01:54;96624.22;;;10.57;64.93
42847;BME280;28495;49.916;14.536;2023-03-22T07:07:15;96621.41;;;10.68;64.81
42847;BME280;28495;49.916;14.536;2023-03-22T07:12:35;96618.28;;;10.64;64.59
42847;BME280;28495;49.916;14.536;2023-03-22T07:18:02;96619.59;;;10.68;64.68
42847;BME280;28495;49.916;14.536;2023-03-22T07:23:25;96619.22;;;10.91;64.83
42847;BME280;28495;49.916;14.536;2023-03-22T07:28:52;96611.00;;;10.86;64.48
42847;BME280;28495;49.916;14.536;2023-03-22T07:34:19;96615.03;;;10.80;64.59
42847;BME280;28495;49.916;14.536;2023-03-22T07:39:58;96608.75;;;11.01;64.48
42847;BME280;28495;49.916;14.536;2023-03-22T07:45:24;96605.34;;;10.91;64.22
42847;BME280;28495;49.916;14.536;2023-03-22T07:51:08;96609.56;;;11.02;64.64
42847;BME280;28495;49.916;14.536;2023-03-22T07:56:29;96612.28;;;11.28;64.52
42847;BME280;28495;49.916;14.536;2023-03-22T08:01:50;96620.63;;;11.50;64.09
42847;BME280;28495;49.916;14.536;2023-03-22T08:07:26;96611.94;;;11.67;63.92
42847;BME280;28495;49.916;14.536;2023-03-22T08:12:47;96608.59;;;11.75;63.57
42847;BME280;28495;49.916;14.536;2023-03-22T08:18:16;96602.97;;;11.88;63.41
42847;BME280;28495;49.916;14.536;2023-03-22T08:23:37;96594.97;;;12.08;63.52
42847;BME280;28495;49.916;14.536;2023-03-22T08:29:31;96592.88;;;12.11;62.95
42847;BME280;28495;49.916;14.536;2023-03-22T08:34:52;96587.44;;;12.04;63.01
42847;BME280;28495;49.916;14.536;2023-03-22T08:40:13;96596.47;;;12.10;62.95
42847;BME280;28495;49.916;14.536;2023-03-22T08:45:39;96585.13;;;12.28;63.20
42847;BME280;28495;49.916;14.536;2023-03-22T08:51:06;96586.78;;;12.37;62.93
42847;BME280;28495;49.916;14.536;2023-03-22T08:56:50;96589.13;;;12.48;62.55
42847;BME280;28495;49.916;14.536;2023-03-22T09:02:26;96585.41;;;12.59;62.30
42847;BME280;28495;49.916;14.536;2023-03-22T09:07:52;96577.44;;;12.61;62.33
42847;BME280;28495;49.916;14.536;2023-03-22T09:13:23;96570.09;;;12.73;62.08
42847;BME280;28495;49.916;14.536;2023-03-22T09:18:51;96571.78;;;12.82;61.74
42847;BME280;28495;49.916;14.536;2023-03-22T09:24:14;96567.25;;;13.01;61.87
42847;BME280;28495;49.916;14.536;2023-03-22T09:29:40;96559.91;;;13.29;61.82
42847;BME280;28495;49.916;14.536;2023-03-22T09:35:06;96552.28;;;13.44;61.54
42847;BME280;28495;49.916;14.536;2023-03-22T09:40:52;96552.59;;;13.57;61.37
42847;BME280;28495;49.916;14.536;2023-03-22T09:46:28;96545.69;;;13.73;61.30
42847;BME280;28495;49.916;14.536;2023-03-22T09:51:52;96537.97;;;13.88;60.90
42847;BME280;28495;49.916;14.536;2023-03-22T10:08:35;96514.28;;;14.21;60.18
42847;BME280;28495;49.916;14.536;2023-03-22T10:14:12;96506.03;;;14.41;60.41
42847;BME280;28495;49.916;14.536;2023-03-22T10:20:03;96505.31;;;14.47;59.94
42847;BME280;28495;49.916;14.536;2023-03-22T10:25:37;96510.53;;;14.55;59.73
42847;BME280;28495;49.916;14.536;2023-03-22T10:30:59;96504.78;;;14.60;59.33
42847;BME280;28495;49.916;14.536;2023-03-22T10:36:22;96499.66;;;14.67;59.06
42847;BME280;28495;49.916;14.536;2023-03-22T10:41:45;96493.22;;;14.77;59.10
42847;BME280;28495;49.916;14.536;2023-03-22T10:47:08;96483.16;;;14.89;58.77
42847;BME280;28495;49.916;14.536;2023-03-22T10:58:32;96483.94;;;15.36;58.65
42847;BME280;28495;49.916;14.536;2023-03-22T11:03:59;96477.50;;;15.39;58.11
42847;BME280;28495;49.916;14.536;2023-03-22T11:09:26;96478.16;;;15.41;58.28
42847;BME280;28495;49.916;14.536;2023-03-22T11:14:46;96476.94;;;15.29;57.47
42847;BME280;28495;49.916;14.536;2023-03-22T11:20:15;96458.91;;;15.26;57.87
42847;BME280;28495;49.916;14.536;2023-03-22T11:25:44;96452.16;;;15.46;58.15
42847;BME280;28495;49.916;14.536;2023-03-22T11:31:11;96451.16;;;15.62;57.85
42847;BME280;28495;49.916;14.536;2023-03-22T11:36:42;96448.91;;;15.74;57.82
42847;BME280;28495;49.916;14.536;2023-03-22T11:42:05;96437.16;;;16.00;57.79
42847;BME280;28495;49.916;14.536;2023-03-22T11:47:30;96431.34;;;16.20;57.27
42847;BME280;28495;49.916;14.536;2023-03-22T11:52:54;96431.59;;;16.25;56.79
42847;BME280;28495;49.916;14.536;2023-03-22T12:04:14;96411.22;;;16.12;56.40
42847;BME280;28495;49.916;14.536;2023-03-22T12:09:58;96409.69;;;16.03;56.30
42847;BME280;28495;49.916;14.536;2023-03-22T12:15:39;96402.72;;;15.95;56.38
42847;BME280;28495;49.916;14.536;2023-03-22T12:21:02;96384.66;;;15.92;56.56
42847;BME280;28495;49.916;14.536;2023-03-22T12:26:25;96379.28;;;16.00;56.53
42847;BME280;28495;49.916;14.536;2023-03-22T12:31:57;96370.03;;;16.04;56.66
42847;BME280;28495;49.916;14.536;2023-03-22T12:37:23;96362.44;;;16.09;56.55
42847;BME280;28495;49.916;14.536;2023-03-22T12:42:57;96348.50;;;16.15;56.30
42847;BME280;28495;49.916;14.536;2023-03-22T12:53:50;96320.72;;;16.50;55.69
42847;BME280;28495;49.916;14.536;2023-03-22T12:59:49;96326.31;;;16.61;55.58
42847;BME280;28495;49.916;14.536;2023-03-22T13:05:05;96325.25;;;16.84;55.07
42847;BME280;28495;49.916;14.536;2023-03-22T13:21:30;96293.78;;;17.33;53.10
42847;BME280;28495;49.916;14.536;2023-03-22T13:26:53;96308.63;;;17.41;52.60
42847;BME280;28495;49.916;14.536;2023-03-22T13:32:28;96301.94;;;17.38;52.07
42847;BME280;28495;49.916;14.536;2023-03-22T13:37:50;96296.91;;;17.50;52.01
42847;BME280;28495;49.916;14.536;2023-03-22T13:43:32;96293.50;;;17.56;51.53
42847;BME280;28495;49.916;14.536;2023-03-22T13:54:25;96284.38;;;17.59;51.18
42847;BME280;28495;49.916;14.536;2023-03-22T14:00:03;96284.59;;;17.64;50.85
42847;BME280;28495;49.916;14.536;2023-03-22T14:05:36;96277.72;;;17.70;50.92
42847;BME280;28495;49.916;14.536;2023-03-22T14:11:09;96281.59;;;17.74;50.60
42847;BME280;28495;49.916;14.536;2023-03-22T14:16:41;96274.72;;;17.79;50.57
42847;BME280;28495;49.916;14.536;2023-03-22T14:22:12;96272.91;;;17.87;50.24
42847;BME280;28495;49.916;14.536;2023-03-22T14:27:34;96271.28;;;17.86;49.72
42847;BME280;28495;49.916;14.536;2023-03-22T14:32:57;96255.25;;;17.80;49.61
42847;BME280;28495;49.916;14.536;2023-03-22T14:38:21;96269.84;;;17.76;49.55
42847;BME280;28495;49.916;14.536;2023-03-22T14:43:48;96266.97;;;17.71;49.04
42847;BME280;28495;49.916;14.536;2023-03-22T14:49:14;96267.16;;;17.63;48.54
42847;BME280;28495;49.916;14.536;2023-03-22T14:54:35;96255.16;;;17.54;48.71
42847;BME280;28495;49.916;14.536;2023-03-22T15:00:00;96249.81;;;17.40;48.31
42847;BME280;28495;49.916;14.536;2023-03-22T15:05:27;96249.63;;;17.35;48.22
42847;BME280;28495;49.916;14.536;2023-03-22T15:10:54;96249.78;;;17.33;48.26
42847;BME280;28495;49.916;14.536;2023-03-22T15:16:20;96243.47;;;17.28;48.15
42847;BME280;28495;49.916;14.536;2023-03-22T15:21:41;96236.38;;;17.21;48.18
42847;BME280;28495;49.916;14.536;2023-03-22T15:27:03;96235.94;;;17.18;48.11
42847;BME280;28495;49.916;14.536;2023-03-22T15:32:24;96227.41;;;17.09;47.67
42847;BME280;28495;49.916;14.536;2023-03-22T15:37:48;96237.69;;;17.04;47.85
42847;BME280;28495;49.916;14.536;2023-03-22T15:43:15;96239.72;;;17.02;47.77
42847;BME280;28495;49.916;14.536;2023-03-22T15:48:45;96240.72;;;17.01;47.71
42847;BME280;28495;49.916;14.536;2023-03-22T15:54:28;96245.78;;;17.02;47.74
42847;BME280;28495;49.916;14.536;2023-03-22T16:05:11;96262.00;;;16.99;47.61
42847;BME280;28495;49.916;14.536;2023-03-22T16:10:33;96256.03;;;16.90;47.48
42847;BME280;28495;49.916;14.536;2023-03-22T16:15:53;96259.00;;;16.81;47.51
42847;BME280;28495;49.916;14.536;2023-03-22T16:21:15;96275.75;;;16.73;47.70
42847;BME280;28495;49.916;14.536;2023-03-22T16:26:36;96281.72;;;16.60;47.88
42847;BME280;28495;49.916;14.536;2023-03-22T16:31:56;96283.25;;;16.48;47.88
42847;BME280;28495;49.916;14.536;2023-03-22T16:37:18;96285.19;;;16.39;48.07
42847;BME280;28495;49.916;14.536;2023-03-22T16:42:38;96287.97;;;16.30;48.13
42847;BME280;28495;49.916;14.536;2023-03-22T16:47:59;96304.50;;;16.24;48.22
42847;BME280;28495;49.916;14.536;2023-03-22T16:53:19;96296.91;;;16.14;48.29
42847;BME280;28495;49.916;14.536;2023-03-22T16:58:39;96302.66;;;16.03;47.96
42847;BME280;28495;49.916;14.536;2023-03-22T17:03:59;96314.31;;;15.94;48.23
42847;BME280;28495;49.916;14.536;2023-03-22T17:09:19;96310.59;;;15.88;48.51
42847;BME280;28495;49.916;14.536;2023-03-22T17:14:38;96320.63;;;15.84;48.77
42847;BME280;28495;49.916;14.536;2023-03-22T17:19:58;96318.91;;;15.77;48.81
42847;BME280;28495;49.916;14.536;2023-03-22T17:25:21;96310.31;;;15.68;48.85
42847;BME280;28495;49.916;14.536;2023-03-22T17:30:42;96305.53;;;15.57;48.65
42847;BME280;28495;49.916;14.536;2023-03-22T17:36:02;96310.06;;;15.48;48.77
42847;BME280;28495;49.916;14.536;2023-03-22T17:41:21;96297.22;;;15.38;48.71
42847;BME280;28495;49.916;14.536;2023-03-22T17:46:41;96306.47;;;15.34;48.99
42847;BME280;28495;49.916;14.536;2023-03-22T17:52:02;96307.91;;;15.36;49.12
42847;BME280;28495;49.916;14.536;2023-03-22T17:57:22;96310.81;;;15.27;49.15
42847;BME280;28495;49.916;14.536;2023-03-22T18:02:42;96316.75;;;15.20;49.08
42847;BME280;28495;49.916;14.536;2023-03-22T18:08:02;96319.59;;;15.19;49.36
42847;BME280;28495;49.916;14.536;2023-03-22T18:13:23;96316.88;;;15.12;49.42
42847;BME280;28495;49.916;14.536;2023-03-22T18:18:43;96324.84;;;15.04;49.40
42847;BME280;28495;49.916;14.536;2023-03-22T18:24:03;96323.72;;;14.98;49.49
42847;BME280;28495;49.916;14.536;2023-03-22T18:29:23;96324.09;;;14.95;49.51
42847;BME280;28495;49.916;14.536;2023-03-22T18:34:43;96324.63;;;14.90;49.96
42847;BME280;28495;49.916;14.536;2023-03-22T18:40:03;96324.88;;;14.81;49.72
42847;BME280;28495;49.916;14.536;2023-03-22T18:45:27;96320.69;;;14.71;49.96
42847;BME280;28495;49.916;14.536;2023-03-22T18:50:47;96318.75;;;14.65;49.98
42847;BME280;28495;49.916;14.536;2023-03-22T18:56:07;96324.50;;;14.60;50.06
42847;BME280;28495;49.916;14.536;2023-03-22T19:01:28;96327.13;;;14.60;49.93
42847;BME280;28495;49.916;14.536;2023-03-22T19:06:48;96323.25;;;14.56;50.11
42847;BME280;28495;49.916;14.536;2023-03-22T19:12:08;96324.59;;;14.52;50.05
42847;BME280;28495;49.916;14.536;2023-03-22T19:17:28;96332.28;;;14.54;50.38
42847;BME280;28495;49.916;14.536;2023-03-22T19:22:48;96335.88;;;14.53;50.11
42847;BME280;28495;49.916;14.536;2023-03-22T19:28:07;96338.59;;;14.44;50.39
42847;BME280;28495;49.916;14.536;2023-03-22T19:33:27;96343.72;;;14.38;50.25
42847;BME280;28495;49.916;14.536;2023-03-22T19:38:47;96344.25;;;14.33;50.37
42847;BME280;28495;49.916;14.536;2023-03-22T19:44:07;96345.28;;;14.24;50.43
42847;BME280;28495;49.916;14.536;2023-03-22T19:49:27;96348.25;;;14.21;50.63
42847;BME280;28495;49.916;14.536;2023-03-22T19:54:49;96347.13;;;14.15;50.72
42847;BME280;28495;49.916;14.536;2023-03-22T20:00:10;96352.44;;;14.07;50.73
42847;BME280;28495;49.916;14.536;2023-03-22T20:05:33;96352.31;;;14.00;50.86
42847;BME280;28495;49.916;14.536;2023-03-22T20:10:53;96337.31;;;13.77;50.82
42847;BME280;28495;49.916;14.536;2023-03-22T20:16:13;96343.41;;;13.69;51.20
42847;BME280;28495;49.916;14.536;2023-03-22T20:21:33;96339.31;;;13.75;51.30
42847;BME280;28495;49.916;14.536;2023-03-22T20:26:54;96343.28;;;13.63;51.07
42847;BME280;28495;49.916;14.536;2023-03-22T20:32:14;96345.75;;;13.56;51.36
42847;BME280;28495;49.916;14.536;2023-03-22T20:37:35;96338.44;;;13.35;51.15
42847;BME280;28495;49.916;14.536;2023-03-22T20:42:54;96347.34;;;13.09;51.55
42847;BME280;28495;49.916;14.536;2023-03-22T20:48:14;96341.75;;;13.20;51.88
42847;BME280;28495;49.916;14.536;2023-03-22T20:53:34;96354.19;;;13.18;52.12
42847;BME280;28495;49.916;14.536;2023-03-22T20:58:54;96366.31;;;13.11;51.98
42847;BME280;28495;49.916;14.536;2023-03-22T21:04:14;96371.75;;;12.93;52.07
42847;BME280;28495;49.916;14.536;2023-03-22T21:09:34;96368.97;;;12.70;52.15
42847;BME280;28495;49.916;14.536;2023-03-22T21:14:55;96359.97;;;12.64;52.32
42847;BME280;28495;49.916;14.536;2023-03-22T21:20:15;96361.94;;;12.45;52.32
42847;BME280;28495;49.916;14.536;2023-03-22T21:25:35;96356.03;;;12.43;52.56
42847;BME280;28495;49.916;14.536;2023-03-22T21:30:56;96353.75;;;12.40;52.63
42847;BME280;28495;49.916;14.536;2023-03-22T21:36:15;96355.38;;;12.41;52.80
42847;BME280;28495;49.916;14.536;2023-03-22T21:41:35;96363.72;;;12.45;53.02
42847;BME280;28495;49.916;14.536;2023-03-22T21:46:56;96370.06;;;12.34;53.04
42847;BME280;28495;49.916;14.536;2023-03-22T21:52:21;96363.69;;;12.28;52.90
42847;BME280;28495;49.916;14.536;2023-03-22T21:57:41;96364.00;;;12.25;53.12
42847;BME280;28495;49.916;14.536;2023-03-22T22:03:01;96370.34;;;12.06;52.95
42847;BME280;28495;49.916;14.536;2023-03-22T22:08:22;96370.81;;;12.01;53.35
42847;BME280;28495;49.916;14.536;2023-03-22T22:13:42;96368.78;;;11.87;53.47
42847;BME280;28495;49.916;14.536;2023-03-22T22:19:02;96365.63;;;11.67;52.96
42847;BME280;28495;49.916;14.536;2023-03-22T22:24:22;96366.50;;;11.49;53.57
42847;BME280;28495;49.916;14.536;2023-03-22T22:29:42;96365.69;;;11.49;53.74
42847;BME280;28495;49.916;14.536;2023-03-22T22:35:02;96364.69;;;11.41;53.80
42847;BME280;28495;49.916;14.536;2023-03-22T22:40:22;96359.25;;;11.35;53.85
42847;BME280;28495;49.916;14.536;2023-03-22T22:45:42;96358.22;;;11.27;53.94
42847;BME280;28495;49.916;14.536;2023-03-22T22:51:03;96363.25;;;11.21;54.25
42847;BME280;28495;49.916;14.536;2023-03-22T22:56:23;96363.69;;;11.08;54.27
42847;BME280;28495;49.916;14.536;2023-03-22T23:01:43;96360.25;;;10.81;54.37
42847;BME280;28495;49.916;14.536;2023-03-22T23:07:02;96354.78;;;10.74;54.73
42847;BME280;28495;49.916;14.536;2023-03-22T23:12:22;96352.03;;;10.76;54.83
42847;BME280;28495;49.916;14.536;2023-03-22T23:17:41;96346.44;;;10.89;54.83
42847;BME280;28495;49.916;14.536;2023-03-22T23:23:07;96341.94;;;10.99;55.07
42847;BME280;28495;49.916;14.536;2023-03-22T23:28:26;96335.94;;;11.07;55.06
42847;BME280;28495;49.916;14.536;2023-03-22T23:33:51;96331.69;;;11.06;54.98
42847;BME280;28495;49.916;14.536;2023-03-22T23:39:11;96339.03;;;11.02;54.96
42847;BME280;28495;49.916;14.536;2023-03-22T23:44:31;96337.84;;;10.96;54.98
42847;BME280;28495;49.916;14.536;2023-03-22T23:49:51;96329.88;;;11.06;55.31
42847;BME280;28495;49.916;14.536;2023-03-22T23:55:11;96326.97;;;11.09;55.16
